Jeddo, Michigan
Current Conditions -  °F | °C
As of 2:16 AM on Saturday 25 Oct 2014 (Local Time) from KPHN Reporting Station
Haze Haze  
Wind Chill: 43°   Ceiling: Unl
Heat Index: 43°   Visibility: 3mi
Dew Point: 41°   Wind: 0mph
Humidity: 93%   Direction: NA
Pressure: 29.92"   Gusts: NA
Location:  43.15°N, 82.58°W
Report Text: KPHN 250616Z AUTO 00000KT 3SM BR CLR 06/05 A2992 RMK AO2
Loading
Personal Weather Stations






























Interactive Weather Map
Tropical Storm Tracking
New forecast layout! Learn more

10-Day Weather Forecast

Advertisements
Track Severe Weather on mobile